Time;durP1;ratioP1;P1;durP2;ratioP2;P2;SDS_P1;SDS_P2;PMS_P1;PMS_P2;Temp;Humidity;BMP_temperature;BMP_pressure;BME280_temperature;BME280_humidity;BME280_pressure;Samples;Min_cycle;Max_cycle;Signal;HPM_P1;HPM_P2
2021/12/17 00:07:05;;;;;;;64.57;27.73;;;5.00;99.90;;;;;;4977498;28;20041;-87
2021/12/17 00:09:31;;;;;;;68.53;28.67;;;5.10;99.90;;;;;;4995064;28;20027;-86
2021/12/17 00:11:57;;;;;;;66.50;27.50;;;5.00;99.90;;;;;;4961295;28;21157;-87
2021/12/17 00:14:28;;;;;;;67.70;27.77;;;5.00;99.90;;;;;;4960763;28;20031;-87
2021/12/17 00:17:00;;;;;;;58.25;25.30;;;5.10;99.90;;;;;;4960800;28;20030;-87
2021/12/17 00:49:21;;;;;;;34.80;18.33;;;5.00;99.90;;;;;;4977210;28;20042;-88
2021/12/17 00:52:01;;;;;;;42.08;19.13;;;5.00;99.90;;;;;;4961499;28;20478;-89
2021/12/17 00:54:39;;;;;;;28.63;15.35;;;4.90;99.90;;;;;;4963906;28;20072;-88
2021/12/17 00:57:19;;;;;;;35.95;17.48;;;4.90;99.90;;;;;;4997464;28;20433;-88
2021/12/17 00:59:48;;;;;;;41.50;19.23;;;4.90;99.90;;;;;;4981366;28;20019;-88
2021/12/17 01:02:18;;;;;;;52.25;22.58;;;5.00;99.90;;;;;;4965249;28;20053;-88
2021/12/17 01:04:49;;;;;;;46.55;22.33;;;5.00;99.90;;;;;;4964550;28;20033;-87
2021/12/17 01:07:16;;;;;;;49.60;23.05;;;5.00;99.90;;;;;;4981777;28;20470;-88
2021/12/17 01:09:45;;;;;;;53.40;25.60;;;5.00;99.90;;;;;;4965050;28;20122;-87
2021/12/17 01:12:11;;;;;;;54.33;25.48;;;5.00;99.90;;;;;;4998461;28;20390;-87
2021/12/17 01:14:46;;;;;;;46.22;21.80;;;5.00;99.90;;;;;;4965925;28;20161;-87
2021/12/17 01:17:34;;;;;;;45.28;22.45;;;5.00;99.90;;;;;;4983929;28;20038;-87
2021/12/17 01:40:45;;;;;;;57.85;28.58;;;4.80;99.90;;;;;;4980958;28;20514;-88
2021/12/17 01:42:43;;;;;;;58.00;28.45;;;4.80;99.90;;;;;;4980653;28;20505;-88
2021/12/17 01:45:09;;;;;;;46.08;23.75;;;4.70;99.90;;;;;;4964349;28;20026;-88
2021/12/17 01:47:35;;;;;;;44.83;24.33;;;4.80;99.90;;;;;;4964749;28;20069;-88
2021/12/17 01:55:49;;;;;;;40.80;22.13;;;4.80;99.90;;;;;;4980548;28;20027;-88
2021/12/17 02:01:05;;;;;;;46.08;23.65;;;4.80;99.90;;;;;;4979988;28;20490;-88
2021/12/17 02:03:31;;;;;;;37.35;22.63;;;4.70;99.90;;;;;;4963469;28;20418;-89
2021/12/17 02:05:59;;;;;;;38.05;22.75;;;4.70;99.90;;;;;;4961261;28;20033;-88
2021/12/17 02:08:24;;;;;;;32.78;19.25;;;4.70;99.90;;;;;;4962864;28;20129;-88
2021/12/17 02:11:31;;;;;;;30.40;17.65;;;4.70;99.90;;;;;;4963090;28;20068;-87
2021/12/17 02:30:28;;;;;;;28.30;17.25;;;4.60;99.90;;;;;;4978860;28;20137;-87
2021/12/17 02:32:54;;;;;;;25.02;17.33;;;4.60;99.90;;;;;;4962402;28;20034;-88
2021/12/17 02:37:48;;;;;;;32.13;18.98;;;4.60;99.90;;;;;;4978333;28;20034;-87
2021/12/17 02:46:24;;;;;;;26.10;16.85;;;4.60;99.90;;;;;;4978675;28;20034;-88
2021/12/17 02:48:50;;;;;;;24.95;15.73;;;4.60;99.90;;;;;;4962935;28;20042;-88
2021/12/17 02:51:17;;;;;;;25.95;16.95;;;4.60;99.90;;;;;;4962741;28;20038;-87
2021/12/17 02:53:43;;;;;;;26.88;15.18;;;4.60;99.90;;;;;;4961734;28;20034;-87
2021/12/17 02:56:09;;;;;;;18.42;12.18;;;4.60;99.90;;;;;;4962101;28;20048;-88
2021/12/17 02:58:37;;;;;;;19.60;13.00;;;4.60;99.90;;;;;;4994854;28;20545;-87
2021/12/17 03:01:06;;;;;;;16.20;11.30;;;4.60;99.90;;;;;;4962413;28;20081;-87
2021/12/17 03:03:34;;;;;;;18.67;11.77;;;4.60;99.90;;;;;;4978003;28;20122;-87
2021/12/17 03:06:00;;;;;;;26.25;13.73;;;4.60;99.90;;;;;;4961511;28;20038;-88
2021/12/17 03:08:26;;;;;;;18.60;13.25;;;4.50;99.90;;;;;;4978074;28;20041;-87
2021/12/17 03:10:53;;;;;;;16.45;11.73;;;4.60;99.90;;;;;;4961800;28;20037;-87
2021/12/17 03:13:22;;;;;;;21.00;14.63;;;4.50;99.90;;;;;;4961829;28;20165;-88
2021/12/17 03:15:54;;;;;;;18.42;12.48;;;4.50;99.90;;;;;;4961592;28;20061;-88
2021/12/17 03:23:42;;;;;;;17.10;10.60;;;4.50;99.90;;;;;;4977533;28;20049;-87
2021/12/17 03:26:26;;;;;;;13.27;9.30;;;4.40;99.90;;;;;;4963217;28;20508;-87
2021/12/17 03:29:02;;;;;;;14.80;9.27;;;4.40;99.90;;;;;;4995074;28;20041;-87
2021/12/17 03:31:30;;;;;;;14.43;9.05;;;4.40;99.90;;;;;;4977730;28;20039;-87
2021/12/17 03:34:16;;;;;;;14.60;9.30;;;4.40;99.90;;;;;;4994609;28;20026;-88
2021/12/17 03:36:42;;;;;;;10.88;7.45;;;4.40;99.90;;;;;;4994162;28;20030;-88
2021/12/17 03:39:11;;;;;;;15.68;9.35;;;4.40;99.90;;;;;;4961600;28;20172;-88
2021/12/17 03:41:39;;;;;;;15.77;10.65;;;4.40;99.90;;;;;;4961316;28;20030;-88
2021/12/17 03:44:08;;;;;;;14.93;10.50;;;4.40;99.90;;;;;;4962106;28;20771;-87
2021/12/17 03:46:54;;;;;;;17.10;11.95;;;4.40;99.90;;;;;;4979568;28;20053;-87
2021/12/17 03:49:22;;;;;;;17.67;11.55;;;4.40;99.90;;;;;;4961206;28;20034;-87
2021/12/17 03:52:05;;;;;;;19.33;12.23;;;4.40;99.90;;;;;;4976843;28;20061;-86
2021/12/17 03:54:36;;;;;;;20.13;13.13;;;4.30;99.90;;;;;;4961882;28;20030;-87
2021/12/17 03:57:10;;;;;;;21.67;13.98;;;4.30;99.90;;;;;;4992862;28;20045;-87
2021/12/17 03:59:39;;;;;;;20.38;13.57;;;4.30;99.90;;;;;;4960905;28;20058;-88
2021/12/17 04:02:05;;;;;;;19.27;12.95;;;4.30;99.90;;;;;;4961019;28;20474;-87
2021/12/17 04:04:31;;;;;;;24.98;13.23;;;4.30;99.90;;;;;;4960683;28;20076;-87
2021/12/17 04:07:22;;;;;;;21.23;13.38;;;4.20;99.90;;;;;;4980090;28;20150;-87
2021/12/17 04:10:07;;;;;;;18.38;12.07;;;4.20;99.90;;;;;;4994272;28;20688;-87
2021/12/17 04:13:26;;;;;;;17.42;11.13;;;4.10;99.90;;;;;;4961329;28;20142;-87
2021/12/17 04:15:34;;;;;;;18.63;11.88;;;4.00;99.90;;;;;;4974050;28;20046;-87
2021/12/17 04:18:01;;;;;;;16.42;10.02;;;3.90;99.90;;;;;;4961414;28;20035;-87
2021/12/17 04:20:27;;;;;;;15.73;10.73;;;3.90;99.90;;;;;;4960715;28;20157;-88
2021/12/17 04:22:53;;;;;;;15.10;9.93;;;3.80;99.90;;;;;;4994481;28;20061;-87
2021/12/17 04:25:18;;;;;;;17.48;11.25;;;3.70;99.90;;;;;;4960606;28;20034;-85
2021/12/17 04:27:44;;;;;;;19.60;11.98;;;3.70;99.90;;;;;;4993214;28;20027;-87
2021/12/17 04:30:11;;;;;;;19.65;12.45;;;3.50;99.90;;;;;;4964466;28;20034;-87
2021/12/17 04:32:36;;;;;;;18.58;12.15;;;3.30;99.90;;;;;;4964819;28;20149;-87
2021/12/17 04:35:03;;;;;;;20.02;12.75;;;3.00;99.90;;;;;;4964832;28;20454;-88
2021/12/17 04:37:37;;;;;;;20.65;12.88;;;2.70;99.90;;;;;;4965964;28;20066;-88
2021/12/17 04:40:03;;;;;;;20.45;13.25;;;2.50;99.90;;;;;;4964729;28;20071;-88
2021/12/17 04:45:13;;;;;;;23.60;13.48;;;2.20;99.90;;;;;;4980789;28;20030;-88
2021/12/17 04:59:23;;;;;;;31.95;17.95;;;1.40;99.90;;;;;;4980572;28;20033;-88
2021/12/17 05:01:50;;;;;;;37.03;19.02;;;1.30;99.90;;;;;;4964069;28;20033;-88
2021/12/17 05:04:18;;;;;;;32.35;17.55;;;1.20;99.90;;;;;;4980394;28;20026;-87
2021/12/17 05:06:44;;;;;;;32.17;18.75;;;1.20;99.90;;;;;;4964062;28;20034;-88
2021/12/17 05:09:23;;;;;;;38.40;19.73;;;1.20;99.90;;;;;;4964842;28;20089;-87
2021/12/17 05:18:15;;;;;;;34.00;18.65;;;1.10;99.90;;;;;;4980271;28;20042;-88
2021/12/17 05:20:18;;;;;;;44.60;25.33;;;1.00;99.90;;;;;;4980151;28;20593;-87
2021/12/17 05:22:50;;;;;;;47.78;24.73;;;0.90;99.90;;;;;;4996554;28;20038;-88
2021/12/17 05:25:16;;;;;;;43.42;21.67;;;1.00;99.90;;;;;;4963964;28;20034;-87
2021/12/17 05:27:42;;;;;;;38.67;21.85;;;0.90;99.90;;;;;;4996029;28;20406;-87
2021/12/17 05:30:08;;;;;;;49.67;26.33;;;0.80;99.90;;;;;;4963992;28;20040;-87
2021/12/17 05:32:34;;;;;;;49.03;26.58;;;0.90;99.90;;;;;;4996026;28;20030;-87
2021/12/17 05:35:01;;;;;;;53.38;26.23;;;0.90;99.90;;;;;;4964018;28;20110;-87
2021/12/17 05:37:28;;;;;;;54.72;30.50;;;0.80;99.90;;;;;;4980080;28;20054;-87
2021/12/17 05:39:54;;;;;;;54.40;28.30;;;0.90;99.90;;;;;;4979369;28;20108;-87
2021/12/17 05:42:23;;;;;;;45.88;25.50;;;0.90;99.90;;;;;;4963464;28;20030;-87
2021/12/17 05:45:20;;;;;;;50.35;26.35;;;0.80;99.90;;;;;;4965619;28;20023;-87
2021/12/17 05:47:47;;;;;;;56.05;26.83;;;0.60;99.90;;;;;;4963665;28;20063;-87
2021/12/17 05:50:13;;;;;;;61.47;30.38;;;0.50;99.90;;;;;;4963312;28;20027;-87
2021/12/17 05:52:39;;;;;;;50.67;28.77;;;0.50;99.90;;;;;;4963454;28;20128;-87
2021/12/17 05:55:45;;;;;;;53.20;29.25;;;0.50;99.90;;;;;;4962514;28;20123;-87
2021/12/17 05:58:12;;;;;;;60.58;29.05;;;0.50;99.90;;;;;;4963016;28;20026;-87
2021/12/17 06:00:40;;;;;;;58.33;27.85;;;0.40;99.90;;;;;;4979723;28;20093;-88
2021/12/17 06:03:26;;;;;;;51.90;27.60;;;0.40;99.90;;;;;;4996404;28;20027;-87
2021/12/17 06:06:05;;;;;;;53.72;27.90;;;0.30;99.90;;;;;;4965723;28;20026;-88
2021/12/17 06:08:31;;;;;;;49.80;27.48;;;0.50;99.90;;;;;;4963442;28;20030;-88
2021/12/17 06:10:57;;;;;;;58.28;30.38;;;0.40;99.90;;;;;;4962531;28;20022;-88
2021/12/17 06:13:24;;;;;;;55.10;28.25;;;0.30;99.90;;;;;;4962862;28;20058;-87
2021/12/17 06:15:50;;;;;;;57.38;29.48;;;0.40;99.90;;;;;;4995396;28;20030;-87
2021/12/17 06:18:17;;;;;;;60.35;32.50;;;0.30;99.90;;;;;;4963217;28;20030;-88
2021/12/17 06:20:43;;;;;;;61.53;31.45;;;0.30;99.90;;;;;;4962949;28;20032;-86
2021/12/17 06:23:31;;;;;;;64.60;32.67;;;0.20;99.90;;;;;;4962062;28;20681;-87
2021/12/17 06:25:56;;;;;;;63.30;33.50;;;0.20;99.90;;;;;;4962442;28;20041;-87
2021/12/17 06:28:22;;;;;;;54.92;29.33;;;0.10;99.90;;;;;;4994733;28;20026;-87
2021/12/17 06:30:51;;;;;;;55.25;30.30;;;0.10;99.90;;;;;;4963476;28;20037;-87
2021/12/17 06:33:24;;;;;;;65.40;31.73;;;0.00;99.90;;;;;;4963110;28;20057;-87
2021/12/17 06:35:51;;;;;;;65.65;31.67;;;0.00;99.90;;;;;;4962804;28;20081;-87
2021/12/17 06:38:16;;;;;;;79.40;37.08;;;-0.10;99.90;;;;;;4963299;28;20038;-86
2021/12/17 06:40:43;;;;;;;68.40;34.22;;;-0.10;99.90;;;;;;4962851;28;20053;-86
2021/12/17 06:43:09;;;;;;;75.63;36.13;;;-0.10;99.90;;;;;;4962374;28;20030;-86
2021/12/17 06:45:53;;;;;;;87.78;40.20;;;-0.10;99.90;;;;;;4978582;28;20093;-86
2021/12/17 06:48:23;;;;;;;82.03;39.20;;;-0.10;99.90;;;;;;4962645;28;20033;-86
2021/12/17 07:06:23;;;;;;;82.38;40.72;;;-0.30;99.90;;;;;;4995454;28;20490;-87
2021/12/17 07:17:33;;;;;;;82.80;38.33;;;-0.50;99.90;;;;;;4977610;28;20404;-86
2021/12/17 07:20:52;;;;;;;87.97;37.83;;;-0.50;99.90;;;;;;4993461;28;20053;-86
2021/12/17 07:23:46;;;;;;;84.07;36.53;;;-0.50;99.90;;;;;;4994535;28;20397;-86
2021/12/17 07:34:07;;;;;;;97.85;43.45;;;-0.20;99.90;;;;;;4977025;28;20022;-85
2021/12/17 07:38:37;;;;;;;95.57;41.53;;;-0.10;99.90;;;;;;4995539;28;20046;-87
2021/12/17 07:39:27;;;;;;;89.97;38.40;;;-0.10;99.90;;;;;;4971747;28;20030;-86
2021/12/17 07:43:10;;;;;;;90.80;40.65;;;-0.10;99.90;;;;;;4962646;28;20562;-86
2021/12/17 07:45:45;;;;;;;94.47;40.47;;;-0.20;99.90;;;;;;4961625;28;20088;-86
2021/12/17 07:48:23;;;;;;;90.80;41.40;;;-0.10;99.90;;;;;;4962082;28;20125;-86
2021/12/17 07:50:53;;;;;;;96.18;40.30;;;-0.10;99.90;;;;;;4961096;28;20031;-86
2021/12/17 07:53:32;;;;;;;90.05;42.60;;;-0.10;99.90;;;;;;4961974;28;20061;-87
2021/12/17 07:56:08;;;;;;;97.00;42.20;;;0.10;99.90;;;;;;4961331;28;20766;-86
2021/12/17 07:58:38;;;;;;;;;;;0.10;99.90;;;;;;4977609;28;20023;-86
2021/12/17 08:01:05;;;;;;;84.30;40.47;;;0.20;99.90;;;;;;4960550;28;19910;-86
2021/12/17 08:03:31;;;;;;;91.57;42.40;;;0.20;99.90;;;;;;4992518;28;20237;-86
2021/12/17 08:06:11;;;;;;;94.72;43.85;;;0.20;99.90;;;;;;4961400;28;20022;-87
2021/12/17 08:08:57;;;;;;;96.90;41.35;;;0.20;99.90;;;;;;4973368;28;20033;-87
2021/12/17 08:11:27;;;;;;;85.00;40.80;;;0.20;99.90;;;;;;4960856;28;20037;-88
2021/12/17 08:13:56;;;;;;;87.30;40.08;;;0.20;99.90;;;;;;4992470;28;20034;-87
2021/12/17 08:32:02;;;;;;;116.45;54.40;;;1.00;99.90;;;;;;4977275;28;20045;-87
2021/12/17 08:34:38;;;;;;;150.70;71.00;;;1.20;99.90;;;;;;4977096;28;20034;-88
2021/12/17 08:37:06;;;;;;;186.43;84.85;;;1.50;99.90;;;;;;4960432;28;20035;-87
2021/12/17 08:39:33;;;;;;;161.40;72.72;;;1.70;99.90;;;;;;4960668;28;20053;-87
2021/12/17 08:42:17;;;;;;;132.65;64.15;;;1.70;99.90;;;;;;4962863;28;20113;-88
2021/12/17 08:44:43;;;;;;;138.40;62.53;;;1.60;99.90;;;;;;4960216;28;20058;-87
2021/12/17 08:47:27;;;;;;;127.07;60.80;;;1.60;99.90;;;;;;4979319;28;20097;-87
2021/12/17 08:49:55;;;;;;;126.45;59.65;;;1.60;99.90;;;;;;4960828;28;20057;-87
2021/12/17 08:52:22;;;;;;;135.82;58.28;;;1.70;99.90;;;;;;4961181;28;20092;-86
2021/12/17 08:54:48;;;;;;;127.95;62.53;;;1.80;99.90;;;;;;4959949;28;20124;-87
2021/12/17 08:57:15;;;;;;;134.13;62.88;;;1.90;99.90;;;;;;4960193;28;20046;-87
2021/12/17 08:59:41;;;;;;;135.25;64.63;;;1.90;99.90;;;;;;4959862;28;20614;-87
2021/12/17 09:02:12;;;;;;;125.65;59.55;;;2.10;99.90;;;;;;4977078;28;20039;-87
2021/12/17 09:04:45;;;;;;;118.03;55.67;;;2.30;99.90;;;;;;4960664;28;20439;-87
2021/12/17 09:07:13;;;;;;;115.53;53.13;;;2.40;99.90;;;;;;4960452;28;20030;-88
2021/12/17 09:09:40;;;;;;;102.30;50.58;;;2.50;99.90;;;;;;4960047;28;20085;-87
2021/12/17 09:12:18;;;;;;;99.68;47.15;;;2.70;99.90;;;;;;4992436;28;20375;-87
2021/12/17 09:14:44;;;;;;;100.85;49.80;;;2.80;99.90;;;;;;4955442;28;20054;-87
2021/12/17 09:17:35;;;;;;;104.40;51.63;;;2.90;99.90;;;;;;4963323;28;20047;-87
2021/12/17 09:20:05;;;;;;;92.50;43.78;;;2.90;99.90;;;;;;4976463;28;20158;-87
2021/12/17 09:22:31;;;;;;;109.15;51.08;;;3.00;99.90;;;;;;4944423;28;20023;-87
2021/12/17 09:25:02;;;;;;;110.85;53.53;;;3.00;99.90;;;;;;4944902;28;20035;-87
2021/12/17 09:27:49;;;;;;;104.45;55.95;;;3.10;99.90;;;;;;4976364;28;20495;-87
2021/12/17 09:34:27;;;;;;;64.95;31.75;;;3.30;99.90;;;;;;4976828;28;20325;-87
2021/12/17 09:36:53;;;;;;;72.72;35.88;;;3.50;99.90;;;;;;4943892;28;20117;-87
2021/12/17 09:39:19;;;;;;;64.18;33.30;;;3.70;99.90;;;;;;4976183;28;20062;-87
2021/12/17 09:41:50;;;;;;;44.53;25.80;;;3.90;99.90;;;;;;4959829;28;20454;-87
2021/12/17 09:44:17;;;;;;;38.47;20.38;;;4.30;99.90;;;;;;4959655;28;20033;-87
2021/12/17 09:46:57;;;;;;;31.85;19.48;;;4.70;99.90;;;;;;4943730;28;20050;-87
2021/12/17 09:49:24;;;;;;;25.73;14.80;;;5.10;99.90;;;;;;4976192;28;20039;-88
2021/12/17 09:51:50;;;;;;;25.73;13.23;;;5.50;99.90;;;;;;4943643;28;20093;-87
2021/12/17 09:54:17;;;;;;;15.38;10.18;;;6.00;99.90;;;;;;4943204;28;20033;-87
2021/12/17 09:56:43;;;;;;;28.90;13.68;;;6.50;99.90;;;;;;4958927;28;20039;-88
2021/12/17 09:59:10;;;;;;;17.70;10.05;;;7.00;99.90;;;;;;4943070;28;20038;-88
2021/12/17 10:01:42;;;;;;;13.65;9.40;;;7.80;99.90;;;;;;4943512;28;20031;-87
2021/12/17 10:04:26;;;;;;;13.90;9.77;;;8.50;99.90;;;;;;4942898;28;20023;-88
2021/12/17 10:07:24;;;;;;;12.68;8.02;;;8.90;99.90;;;;;;4943253;28;20037;-88
2021/12/17 10:09:56;;;;;;;12.52;7.18;;;8.80;99.90;;;;;;4954381;28;20407;-87
2021/12/17 10:12:35;;;;;;;9.25;6.40;;;8.90;99.90;;;;;;4976253;28;20089;-88
2021/12/17 10:15:08;;;;;;;8.30;5.28;;;8.90;99.90;;;;;;4943263;28;20035;-87
2021/12/17 10:17:54;;;;;;;7.80;5.93;;;8.80;99.90;;;;;;4976658;28;20066;-87
2021/12/17 10:20:22;;;;;;;9.75;6.35;;;8.60;99.90;;;;;;4975598;28;20082;-87
2021/12/17 10:23:08;;;;;;;9.05;5.68;;;8.50;99.90;;;;;;4975464;28;20031;-87
2021/12/17 10:25:37;;;;;;;16.48;9.05;;;8.40;99.90;;;;;;4974281;28;20082;-87
2021/12/17 10:28:07;;;;;;;28.60;15.00;;;8.10;99.90;;;;;;4975908;28;20038;-87
2021/12/17 10:30:35;;;;;;;24.13;12.60;;;7.60;99.90;;;;;;4975258;28;20090;-87
2021/12/17 10:33:04;;;;;;;33.72;15.95;;;7.30;99.90;;;;;;4959967;28;20050;-86
2021/12/17 10:35:48;;;;;;;27.17;16.48;;;7.00;99.90;;;;;;4974823;28;20641;-87
2021/12/17 10:38:17;;;;;;;15.48;8.45;;;6.90;99.90;;;;;;4974870;28;20035;-87
2021/12/17 10:41:12;;;;;;;15.00;9.82;;;6.80;99.90;;;;;;4974718;28;20030;-87
2021/12/17 10:43:42;;;;;;;15.23;7.43;;;6.70;99.90;;;;;;4958476;28;20035;-88
2021/12/17 10:51:19;;;;;;;10.85;7.03;;;6.30;99.90;;;;;;4974659;28;20126;-87
2021/12/17 10:53:54;;;;;;;8.68;5.88;;;6.30;99.90;;;;;;4974364;28;20598;-86
2021/12/17 10:56:23;;;;;;;9.55;6.45;;;6.20;99.90;;;;;;4975101;28;20097;-87
2021/12/17 10:59:02;;;;;;;9.75;7.10;;;6.10;99.90;;;;;;4975461;28;20034;-87
2021/12/17 11:01:35;;;;;;;10.70;6.55;;;6.10;99.90;;;;;;4974985;28;20448;-86
2021/12/17 11:04:12;;;;;;;12.82;8.18;;;6.00;99.90;;;;;;4974636;28;20034;-87
2021/12/17 11:06:51;;;;;;;11.30;7.78;;;5.90;99.90;;;;;;4974017;28;20107;-87
2021/12/17 11:09:49;;;;;;;13.20;8.23;;;5.80;99.90;;;;;;4957944;28;20031;-86
2021/12/17 11:12:35;;;;;;;10.00;7.03;;;5.80;99.90;;;;;;4974634;28;20423;-86
2021/12/17 11:15:19;;;;;;;14.27;7.95;;;5.60;99.90;;;;;;4974439;28;20042;-86
2021/12/17 11:17:55;;;;;;;13.43;8.93;;;5.60;99.90;;;;;;4974105;28;20395;-86
2021/12/17 11:20:25;;;;;;;11.65;7.75;;;5.80;99.90;;;;;;4974336;28;20493;-86
2021/12/17 11:22:52;;;;;;;15.80;9.32;;;5.90;99.90;;;;;;4974566;28;20031;-86
2021/12/17 11:25:20;;;;;;;28.65;15.77;;;5.90;99.90;;;;;;4974717;28;20027;-88
2021/12/17 11:27:52;;;;;;;16.92;10.10;;;5.90;99.90;;;;;;4959376;28;20078;-86
2021/12/17 11:30:21;;;;;;;15.13;8.25;;;6.10;99.90;;;;;;4974395;28;20042;-88
2021/12/17 11:32:49;;;;;;;9.70;6.80;;;6.20;99.90;;;;;;4974900;28;20084;-87
2021/12/17 11:35:17;;;;;;;10.25;7.47;;;6.30;99.90;;;;;;4974758;28;20125;-86
2021/12/17 11:37:46;;;;;;;11.50;6.60;;;6.20;99.90;;;;;;4973896;28;20031;-86
2021/12/17 11:40:40;;;;;;;14.90;7.45;;;5.90;99.90;;;;;;4974323;28;20045;-86
2021/12/17 11:43:24;;;;;;;11.68;7.20;;;5.70;99.90;;;;;;4956941;28;20039;-86
2021/12/17 11:46:03;;;;;;;10.82;8.20;;;5.70;99.90;;;;;;4973944;28;20035;-87
2021/12/17 11:48:31;;;;;;;13.50;8.63;;;5.80;99.90;;;;;;4974087;28;20030;-86
2021/12/17 11:51:44;;;;;;;14.07;10.05;;;6.00;99.90;;;;;;4974003;28;20031;-87
2021/12/17 11:54:16;;;;;;;13.40;10.05;;;5.90;99.90;;;;;;4951947;28;20039;-87
2021/12/17 11:56:46;;;;;;;11.18;7.90;;;6.10;99.90;;;;;;4974253;28;20039;-86
2021/12/17 11:59:24;;;;;;;14.13;9.57;;;5.90;99.90;;;;;;4974473;28;20415;-87
2021/12/17 12:02:00;;;;;;;13.15;9.23;;;5.90;99.90;;;;;;4974248;28;20027;-87
2021/12/17 12:04:32;;;;;;;18.85;8.75;;;6.00;99.90;;;;;;4974277;28;20030;-87
2021/12/17 12:07:21;;;;;;;13.02;8.80;;;5.90;99.90;;;;;;4973876;28;20137;-86
2021/12/17 12:10:06;;;;;;;19.33;12.25;;;5.90;99.90;;;;;;4974424;28;20035;-87
2021/12/17 12:12:38;;;;;;;17.70;11.25;;;5.90;99.90;;;;;;4942335;28;20856;-87
2021/12/17 12:15:23;;;;;;;21.70;11.95;;;5.70;99.90;;;;;;4957645;28;20042;-87
2021/12/17 12:17:57;;;;;;;18.65;11.30;;;5.60;99.90;;;;;;4942161;28;20121;-86
2021/12/17 12:23:37;;;;;;;28.08;18.33;;;5.50;99.90;;;;;;4954219;28;20043;-88
2021/12/17 12:28:43;;;;;;;27.92;15.80;;;5.60;99.90;;;;;;4957547;28;20035;-87
2021/12/17 12:31:09;;;;;;;19.40;12.60;;;5.60;99.90;;;;;;4957328;28;20045;-87
2021/12/17 12:33:35;;;;;;;37.55;18.67;;;5.60;99.90;;;;;;4974185;28;20023;-87
2021/12/17 12:36:52;;;;;;;23.20;13.63;;;5.70;99.90;;;;;;4973122;28;20558;-87
2021/12/17 12:40:02;;;;;;;32.08;17.73;;;5.80;99.90;;;;;;4946505;28;20055;-86
2021/12/17 12:42:35;;;;;;;19.80;13.13;;;6.00;99.90;;;;;;4957249;28;20039;-87
2021/12/17 12:45:05;;;;;;;28.20;20.10;;;5.90;99.90;;;;;;4972973;28;20027;-86
2021/12/17 12:47:43;;;;;;;34.65;23.17;;;5.80;99.90;;;;;;4958988;28;20485;-86
2021/12/17 12:50:15;;;;;;;23.67;12.00;;;5.80;99.90;;;;;;4974912;28;20043;-87
2021/12/17 12:52:45;;;;;;;21.55;12.27;;;5.90;99.90;;;;;;4976777;28;20054;-86
2021/12/17 12:55:20;;;;;;;18.17;11.88;;;5.80;99.90;;;;;;4976887;28;20646;-86
2021/12/17 12:57:54;;;;;;;17.85;11.57;;;5.80;99.90;;;;;;4960764;28;20035;-86
2021/12/17 13:00:31;;;;;;;21.35;13.88;;;5.70;99.90;;;;;;4945680;28;20022;-86
2021/12/17 13:03:02;;;;;;;18.75;12.13;;;5.50;99.90;;;;;;4976451;28;20029;-86
2021/12/17 13:05:28;;;;;;;15.83;11.50;;;5.40;99.90;;;;;;4976722;28;20131;-86
2021/12/17 13:07:56;;;;;;;18.20;12.13;;;5.20;99.90;;;;;;4978295;28;20302;-86
2021/12/17 13:10:38;;;;;;;27.30;16.17;;;5.10;99.90;;;;;;4976902;28;20041;-86
2021/12/17 13:13:22;;;;;;;19.67;12.18;;;5.20;99.90;;;;;;4977265;28;20035;-86
2021/12/17 13:24:08;;;;;;;28.83;14.05;;;5.50;99.90;;;;;;4960444;28;20513;-87
2021/12/17 13:26:35;;;;;;;18.52;12.73;;;5.40;99.90;;;;;;4960896;28;20030;-86
2021/12/17 13:29:11;;;;;;;16.98;11.35;;;5.30;99.90;;;;;;4976506;28;20121;-86
2021/12/17 13:31:48;;;;;;;23.02;14.73;;;5.20;99.90;;;;;;4976704;28;20043;-87
2021/12/17 13:34:32;;;;;;;28.90;17.92;;;4.80;99.90;;;;;;4944617;28;20050;-87
2021/12/17 13:37:16;;;;;;;32.88;17.67;;;4.60;99.90;;;;;;4946526;28;20410;-86
2021/12/17 13:40:04;;;;;;;31.95;21.10;;;4.30;99.90;;;;;;4960850;28;20487;-86
2021/12/17 13:42:42;;;;;;;30.83;19.58;;;4.10;99.90;;;;;;4943798;28;20178;-86
2021/12/17 13:45:16;;;;;;;30.10;21.00;;;4.00;99.90;;;;;;4975473;28;20027;-86
2021/12/17 13:47:47;;;;;;;31.50;18.60;;;4.00;99.90;;;;;;4975782;28;20039;-86
2021/12/17 13:50:17;;;;;;;29.25;18.20;;;4.20;99.90;;;;;;4975637;28;20124;-86
2021/12/17 13:52:54;;;;;;;27.17;16.45;;;4.30;99.90;;;;;;4977612;28;20041;-87
2021/12/17 13:55:28;;;;;;;27.02;17.73;;;4.40;99.90;;;;;;4974908;28;20037;-86
2021/12/17 13:57:55;;;;;;;23.73;14.80;;;4.40;99.90;;;;;;4975999;28;20078;-87
2021/12/17 14:00:24;;;;;;;21.85;14.30;;;4.40;99.90;;;;;;4975677;28;20031;-86
2021/12/17 14:02:55;;;;;;;26.65;17.33;;;4.50;99.90;;;;;;4975552;28;20042;-87
2021/12/17 14:05:40;;;;;;;20.43;13.73;;;4.50;99.90;;;;;;4975618;28;20070;-85
2021/12/17 14:08:11;;;;;;;19.90;12.25;;;4.40;99.90;;;;;;4975545;28;20031;-86
2021/12/17 14:10:38;;;;;;;22.00;14.02;;;4.30;99.90;;;;;;4975561;28;20113;-86
2021/12/17 14:13:13;;;;;;;26.27;15.38;;;4.30;99.90;;;;;;4959246;28;20039;-87
2021/12/17 14:15:41;;;;;;;24.50;15.38;;;4.20;99.90;;;;;;4975958;28;20030;-86
2021/12/17 14:18:08;;;;;;;30.50;17.73;;;4.10;99.90;;;;;;4975525;28;20027;-86
2021/12/17 14:20:43;;;;;;;38.08;20.08;;;4.10;99.90;;;;;;4975189;28;20039;-86
2021/12/17 14:23:14;;;;;;;36.60;18.38;;;4.00;99.90;;;;;;4975266;28;20538;-87
2021/12/17 14:25:52;;;;;;;34.45;17.83;;;4.00;99.90;;;;;;4975365;28;20545;-86
2021/12/17 14:28:21;;;;;;;29.35;17.38;;;4.00;99.90;;;;;;4942973;28;20050;-86
2021/12/17 14:31:00;;;;;;;28.33;16.65;;;3.90;99.90;;;;;;4959231;28;20034;-86
2021/12/17 14:33:31;;;;;;;23.73;15.88;;;3.80;99.90;;;;;;4958934;28;20035;-86
2021/12/17 14:36:09;;;;;;;27.63;16.38;;;3.80;99.90;;;;;;4943178;28;20098;-87
2021/12/17 14:38:38;;;;;;;27.58;16.45;;;3.80;99.90;;;;;;4958527;28;20081;-86
2021/12/17 14:41:05;;;;;;;27.40;16.85;;;3.80;99.90;;;;;;4975048;28;20015;-86
2021/12/17 14:43:37;;;;;;;30.05;18.73;;;3.80;99.90;;;;;;4975735;28;20151;-86
2021/12/17 14:46:18;;;;;;;;;;;3.70;99.90;;;;;;4943044;28;20035;-87
2021/12/17 15:04:47;;;;;;;31.20;18.70;;;3.50;99.90;;;;;;4958458;28;20129;-86
2021/12/17 15:07:13;;;;;;;34.38;19.38;;;3.50;99.90;;;;;;4974678;28;20046;-87
2021/12/17 15:09:43;;;;;;;37.80;21.13;;;3.40;99.90;;;;;;4974517;28;20042;-87
2021/12/17 15:12:36;;;;;;;29.30;18.60;;;3.40;99.90;;;;;;4972941;28;20094;-88
2021/12/17 15:15:00;;;;;;;38.15;21.02;;;3.40;99.90;;;;;;4958118;28;20035;-87
2021/12/17 15:17:26;;;;;;;37.03;21.17;;;3.40;99.90;;;;;;4974457;28;20114;-86
2021/12/17 15:19:52;;;;;;;35.78;18.75;;;3.30;99.90;;;;;;4974245;28;20154;-86
2021/12/17 15:22:17;;;;;;;30.88;18.40;;;3.30;99.90;;;;;;4974223;28;20379;-86
2021/12/17 15:24:43;;;;;;;36.50;20.63;;;3.10;99.90;;;;;;4942097;28;20038;-87
2021/12/17 15:27:09;;;;;;;29.40;18.95;;;3.10;99.90;;;;;;4974528;28;20096;-86
2021/12/17 15:29:35;;;;;;;28.30;17.98;;;3.10;99.90;;;;;;4974771;28;20391;-86
2021/12/17 15:32:00;;;;;;;30.42;18.13;;;3.00;99.90;;;;;;4974414;28;20031;-87
2021/12/17 15:34:26;;;;;;;34.92;21.08;;;3.00;99.90;;;;;;4974079;28;20049;-86
2021/12/17 15:36:53;;;;;;;34.63;21.05;;;3.00;99.90;;;;;;4974359;28;20035;-88
2021/12/17 15:39:19;;;;;;;30.75;19.10;;;3.00;99.90;;;;;;4974635;28;20041;-87
2021/12/17 15:41:45;;;;;;;30.38;18.85;;;3.10;99.90;;;;;;4974020;28;20030;-86
2021/12/17 15:44:11;;;;;;;34.55;21.30;;;3.10;99.90;;;;;;4975596;28;20031;-87
2021/12/17 15:46:37;;;;;;;34.08;20.80;;;3.10;99.90;;;;;;4974428;28;20034;-87
2021/12/17 15:49:04;;;;;;;36.45;18.92;;;3.10;99.90;;;;;;4958340;28;20035;-87
2021/12/17 15:51:30;;;;;;;33.22;18.38;;;3.20;99.90;;;;;;4973711;28;20039;-86
2021/12/17 15:53:56;;;;;;;28.98;17.42;;;3.20;99.90;;;;;;4973533;28;20130;-86
2021/12/17 15:56:22;;;;;;;30.98;17.90;;;3.20;99.90;;;;;;4974154;28;20041;-86
2021/12/17 15:58:48;;;;;;;30.23;17.45;;;3.10;99.90;;;;;;4974121;28;20045;-87
2021/12/17 16:01:14;;;;;;;28.08;18.40;;;3.10;99.90;;;;;;4973851;28;20483;-86
2021/12/17 16:03:42;;;;;;;33.55;18.65;;;3.10;99.90;;;;;;4973498;28;20035;-86
2021/12/17 16:06:09;;;;;;;31.27;19.75;;;3.10;99.90;;;;;;4973898;28;20045;-86
2021/12/17 16:08:42;;;;;;;49.08;21.80;;;3.10;99.90;;;;;;4973925;28;20035;-86
2021/12/17 16:21:46;;;;;;;41.45;23.83;;;3.20;99.90;;;;;;4974800;28;20031;-88
2021/12/17 16:24:12;;;;;;;48.40;23.23;;;3.10;99.90;;;;;;4973834;28;20437;-87
2021/12/17 16:26:58;;;;;;;38.67;21.23;;;3.10;99.90;;;;;;4976991;28;20065;-86
2021/12/17 16:29:24;;;;;;;41.05;21.48;;;3.10;99.90;;;;;;4978111;28;20035;-87
2021/12/17 16:31:50;;;;;;;40.83;22.60;;;3.10;99.90;;;;;;4978235;28;20517;-87
2021/12/17 16:35:02;;;;;;;45.38;20.63;;;3.10;99.90;;;;;;4977727;28;20177;-87
2021/12/17 16:37:27;;;;;;;38.70;20.58;;;3.10;99.90;;;;;;4945418;28;20034;-87
2021/12/17 16:39:53;;;;;;;36.05;19.48;;;3.10;99.90;;;;;;4977431;28;20034;-86